createdAt,value
2018-12-09T00:01:34.282Z,0.40
2018-12-09T00:04:41.646Z,0.60
2018-12-09T00:07:45.126Z,0.40
2018-12-09T00:10:50.806Z,0.40
2018-12-09T00:13:58.830Z,0.87
2018-12-09T00:17:02.475Z,0.63
2018-12-09T00:20:11.657Z,0.77
2018-12-09T00:23:16.300Z,1.40
2018-12-09T00:26:19.835Z,2.00
2018-12-09T00:29:23.409Z,0.90
2018-12-09T00:32:26.941Z,1.73
2018-12-09T00:35:30.580Z,1.63
2018-12-09T00:38:34.367Z,2.07
2018-12-09T00:41:37.785Z,2.80
2018-12-09T00:44:41.365Z,2.77
2018-12-09T00:47:44.842Z,2.73
2018-12-09T00:50:48.469Z,2.30
2018-12-09T00:53:52.059Z,5.03
2018-12-09T00:56:55.691Z,6.40
2018-12-09T01:00:00.395Z,2.90
2018-12-09T01:03:03.984Z,5.10
2018-12-09T01:06:07.433Z,1.73
2018-12-09T01:09:11.080Z,5.53
2018-12-09T01:12:14.606Z,5.03
2018-12-09T01:15:18.258Z,5.30
2018-12-09T01:18:21.730Z,5.97
2018-12-09T01:21:25.405Z,3.90
2018-12-09T01:24:29.019Z,4.43
2018-12-09T01:27:32.662Z,3.90
2018-12-09T01:30:36.264Z,2.97
2018-12-09T01:33:39.910Z,3.10
2018-12-09T01:36:43.468Z,4.53
2018-12-09T01:39:46.974Z,5.80
2018-12-09T01:42:50.574Z,4.10
2018-12-09T01:45:54.222Z,4.93
2018-12-09T01:48:57.851Z,5.97
2018-12-09T01:52:01.396Z,3.97
2018-12-09T01:55:05.347Z,7.00
2018-12-09T01:58:08.827Z,4.40
2018-12-09T02:01:12.320Z,2.80
2018-12-09T02:04:16.182Z,3.40
2018-12-09T02:07:19.750Z,2.30
2018-12-09T02:10:23.346Z,3.67
2018-12-09T02:13:26.911Z,4.87
2018-12-09T02:16:30.250Z,3.83
2018-12-09T02:19:33.787Z,5.03
2018-12-09T02:22:37.316Z,5.07
2018-12-09T02:25:40.900Z,9.30
2018-12-09T02:28:44.435Z,6.70
2018-12-09T02:31:47.945Z,3.97
2018-12-09T02:34:52.171Z,5.60
2018-12-09T02:37:55.759Z,5.27
2018-12-09T02:40:59.389Z,7.80
2018-12-09T02:44:03.015Z,5.83
2018-12-09T02:47:06.570Z,6.20
2018-12-09T02:50:10.176Z,5.97
2018-12-09T02:53:13.799Z,5.43
2018-12-09T02:56:17.420Z,5.37
2018-12-09T02:59:21.066Z,6.23
2018-12-09T03:02:24.590Z,4.73
2018-12-09T03:05:28.100Z,7.07
2018-12-09T03:08:31.603Z,4.40
2018-12-09T03:11:35.219Z,8.80
2018-12-09T03:14:38.813Z,7.33
2018-12-09T03:17:42.319Z,7.77
2018-12-09T03:20:45.834Z,6.57
2018-12-09T03:23:49.442Z,7.83
2018-12-09T03:26:55.036Z,7.47
2018-12-09T03:29:56.648Z,6.33
2018-12-09T03:33:00.076Z,8.00
2018-12-09T03:36:03.655Z,8.23
2018-12-09T03:39:08.014Z,9.30
2018-12-09T03:42:11.573Z,9.17
2018-12-09T03:45:15.192Z,7.97
2018-12-09T03:48:18.816Z,8.93
2018-12-09T03:51:22.486Z,9.17
2018-12-09T03:54:25.904Z,8.00
2018-12-09T03:57:29.417Z,6.17
2018-12-09T04:00:33.015Z,7.97
2018-12-09T04:03:36.535Z,6.57
2018-12-09T04:06:40.030Z,8.50
2018-12-09T04:09:43.497Z,8.33
2018-12-09T04:12:47.001Z,9.77
2018-12-09T04:15:50.552Z,11.30
2018-12-09T04:18:54.067Z,10.63
2018-12-09T04:21:57.520Z,7.53
2018-12-09T04:25:01.020Z,10.17
2018-12-09T04:28:04.543Z,7.43
2018-12-09T04:31:08.161Z,9.93
2018-12-09T04:34:11.701Z,9.47
2018-12-09T04:37:15.260Z,10.60
2018-12-09T04:40:18.840Z,8.93
2018-12-09T04:43:22.369Z,10.53
2018-12-09T04:46:25.836Z,13.97
2018-12-09T04:49:29.298Z,13.03
2018-12-09T04:52:32.883Z,11.77
2018-12-09T04:55:36.475Z,16.10
2018-12-09T04:58:50.096Z,12.27
2018-12-09T05:01:53.612Z,14.23
2018-12-09T05:04:57.229Z,11.73
2018-12-09T05:08:00.798Z,12.33
2018-12-09T05:11:04.299Z,15.63
2018-12-09T05:14:07.789Z,12.10
2018-12-09T05:17:11.197Z,14.90
2018-12-09T05:20:14.925Z,9.70
2018-12-09T05:23:18.423Z,13.67
2018-12-09T05:26:21.923Z,7.90
2018-12-09T05:29:25.428Z,11.60
2018-12-09T05:32:28.878Z,13.30
2018-12-09T05:35:32.467Z,12.20
2018-12-09T05:38:36.140Z,14.43
2018-12-09T05:41:39.708Z,11.77
2018-12-09T05:44:43.297Z,13.57
2018-12-09T05:47:47.055Z,11.87
2018-12-09T05:50:50.748Z,12.77
2018-12-09T05:53:54.469Z,13.20
2018-12-09T05:56:57.923Z,10.47
2018-12-09T06:00:01.559Z,9.60
2018-12-09T06:03:05.294Z,6.17
2018-12-09T06:06:08.745Z,8.90
2018-12-09T06:09:12.238Z,8.17
2018-12-09T06:12:16.196Z,8.43
2018-12-09T06:15:19.730Z,6.50
2018-12-09T06:18:23.187Z,5.17
2018-12-09T06:21:26.767Z,4.57
2018-12-09T06:24:30.360Z,3.07
2018-12-09T06:27:34.177Z,4.10
2018-12-09T06:30:37.885Z,3.73
2018-12-09T06:33:41.747Z,3.70
2018-12-09T06:36:45.451Z,2.53
2018-12-09T06:39:49.177Z,3.17
2018-12-09T06:42:52.723Z,3.40
2018-12-09T06:45:56.539Z,2.93
2018-12-09T06:49:00.299Z,3.43
2018-12-09T06:52:04.000Z,2.70
2018-12-09T06:55:09.067Z,2.77
2018-12-09T06:58:12.891Z,3.37
2018-12-09T07:01:21.611Z,2.17
2018-12-09T07:04:25.289Z,3.37
2018-12-09T07:07:29.916Z,2.13
2018-12-09T07:10:33.492Z,3.73
2018-12-09T07:13:37.108Z,2.40
2018-12-09T07:16:40.728Z,3.73
2018-12-09T07:19:45.474Z,2.83
2018-12-09T07:22:49.005Z,4.60
2018-12-09T07:25:52.712Z,4.63
2018-12-09T07:28:56.311Z,5.43
2018-12-09T07:31:59.868Z,3.53
2018-12-09T07:35:03.672Z,2.33
2018-12-09T07:38:07.358Z,4.70
2018-12-09T07:41:10.947Z,5.60
2018-12-09T07:44:14.547Z,6.60
2018-12-09T07:47:18.146Z,4.87
2018-12-09T07:50:21.871Z,3.67
2018-12-09T07:53:25.489Z,5.10
2018-12-09T07:56:29.065Z,5.67
2018-12-09T07:59:32.742Z,4.50
2018-12-09T08:02:36.275Z,6.00
2018-12-09T08:05:39.847Z,3.47
2018-12-09T08:08:43.394Z,5.60
2018-12-09T08:11:47.021Z,6.40
2018-12-09T08:14:50.697Z,4.70
2018-12-09T08:17:54.264Z,4.90
2018-12-09T08:20:57.739Z,5.23
2018-12-09T08:24:01.521Z,7.43
2018-12-09T08:27:05.132Z,9.40
2018-12-09T08:30:08.920Z,6.10
2018-12-09T08:33:12.741Z,10.43
2018-12-09T08:36:16.246Z,7.73
2018-12-09T08:39:19.800Z,9.23
2018-12-09T08:42:23.559Z,9.77
2018-12-09T08:45:27.165Z,8.33
2018-12-09T08:48:30.695Z,13.00
2018-12-09T08:51:34.318Z,7.90
2018-12-09T08:54:37.894Z,9.67
2018-12-09T08:57:41.506Z,12.13
2018-12-09T09:00:45.335Z,8.27
2018-12-09T09:03:48.850Z,8.43
2018-12-09T09:06:52.443Z,4.80
2018-12-09T09:09:56.211Z,9.87
2018-12-09T09:12:59.998Z,8.07
2018-12-09T09:16:03.547Z,11.83
2018-12-09T09:19:07.367Z,7.23
2018-12-09T09:22:11.049Z,9.03
2018-12-09T09:25:14.567Z,7.77
2018-12-09T09:28:18.009Z,7.80
2018-12-09T09:31:21.622Z,10.40
2018-12-09T09:34:25.272Z,15.90
2018-12-09T09:37:28.763Z,8.67
2018-12-09T09:40:32.338Z,10.33
2018-12-09T09:43:35.907Z,8.37
2018-12-09T09:46:39.541Z,8.20
2018-12-09T09:49:43.109Z,9.23
2018-12-09T09:52:46.768Z,9.27
2018-12-09T09:55:50.326Z,7.17
2018-12-09T09:58:53.910Z,10.93
2018-12-09T10:01:57.432Z,8.73
2018-12-09T10:05:01.961Z,14.80
2018-12-09T10:08:05.537Z,9.03
2018-12-09T10:11:10.180Z,6.23
2018-12-09T10:14:13.828Z,9.37
2018-12-09T10:17:17.465Z,9.47
2018-12-09T10:20:21.001Z,11.37
2018-12-09T10:23:24.537Z,7.40
2018-12-09T10:26:36.233Z,10.27
2018-12-09T10:29:32.122Z,8.13
2018-12-09T10:32:36.022Z,7.27
2018-12-09T10:35:39.531Z,9.73
2018-12-09T10:38:43.106Z,9.90
2018-12-09T10:41:46.577Z,8.93
2018-12-09T10:44:50.006Z,6.03
2018-12-09T10:47:53.676Z,8.13
2018-12-09T10:50:57.257Z,9.10
2018-12-09T10:54:00.852Z,10.50
2018-12-09T10:57:04.409Z,12.47
2018-12-09T11:00:12.074Z,8.40
2018-12-09T11:03:15.565Z,6.83
2018-12-09T11:06:19.280Z,7.70
2018-12-09T11:09:22.750Z,9.20
2018-12-09T11:12:26.275Z,7.43
2018-12-09T11:15:29.709Z,7.73
2018-12-09T11:18:33.274Z,9.83
2018-12-09T11:21:37.396Z,8.50
2018-12-09T11:24:40.979Z,10.20
2018-12-09T11:27:44.539Z,8.73
2018-12-09T11:30:48.208Z,7.63
2018-12-09T11:33:51.694Z,11.43
2018-12-09T11:36:55.317Z,11.33
2018-12-09T11:39:58.876Z,6.73
2018-12-09T11:43:02.336Z,10.10
2018-12-09T11:46:05.942Z,7.60
2018-12-09T11:49:09.853Z,9.87
2018-12-09T11:52:13.323Z,7.93
2018-12-09T11:55:16.878Z,5.87
2018-12-09T11:58:21.345Z,7.60
2018-12-09T12:01:25.617Z,4.10
2018-12-09T12:04:29.098Z,7.37
2018-12-09T12:07:32.486Z,5.87
2018-12-09T12:10:36.092Z,9.30
2018-12-09T12:13:39.587Z,9.33
2018-12-09T12:16:43.068Z,6.90
2018-12-09T12:19:46.912Z,7.77
2018-12-09T12:22:51.503Z,10.73
2018-12-09T12:25:55.191Z,8.87
2018-12-09T12:28:58.748Z,6.87
2018-12-09T12:32:02.343Z,7.27
2018-12-09T12:35:06.062Z,7.20
2018-12-09T12:38:09.659Z,5.47
2018-12-09T12:41:13.155Z,5.50
2018-12-09T12:44:17.912Z,4.43
2018-12-09T12:47:21.487Z,5.27
2018-12-09T12:50:25.356Z,3.53
2018-12-09T12:53:28.884Z,4.90
2018-12-09T12:56:32.551Z,3.83
2018-12-09T12:59:36.319Z,3.13
2018-12-09T13:02:39.930Z,2.10
2018-12-09T13:05:43.551Z,2.13
2018-12-09T13:08:47.123Z,3.73
2018-12-09T13:11:50.700Z,3.53
2018-12-09T13:14:54.240Z,4.70
2018-12-09T13:17:57.843Z,4.00
2018-12-09T13:21:01.514Z,4.73
2018-12-09T13:24:05.104Z,3.10
2018-12-09T13:27:08.628Z,3.67
2018-12-09T13:30:12.246Z,4.20
2018-12-09T13:33:15.751Z,3.73
2018-12-09T13:36:19.365Z,3.13
2018-12-09T13:39:22.953Z,2.17
2018-12-09T13:42:26.402Z,3.53
2018-12-09T13:45:30.029Z,5.93
2018-12-09T13:48:33.725Z,3.70
2018-12-09T13:51:37.444Z,4.53
2018-12-09T13:54:40.973Z,4.60
2018-12-09T13:57:44.388Z,3.90
2018-12-09T14:00:52.119Z,3.90
2018-12-09T14:04:00.202Z,3.30
2018-12-09T14:07:12.219Z,3.63
2018-12-09T14:10:29.841Z,4.80
2018-12-09T14:13:33.354Z,3.57
2018-12-09T14:16:36.862Z,3.27
2018-12-09T14:19:41.613Z,4.73
2018-12-09T14:22:45.349Z,4.77
2018-12-09T14:25:49.909Z,4.70
2018-12-09T14:28:54.217Z,6.50
2018-12-09T14:31:57.874Z,3.40
2018-12-09T14:35:01.449Z,7.00
2018-12-09T14:38:04.984Z,4.77
2018-12-09T14:41:08.823Z,5.57
2018-12-09T14:44:12.468Z,5.20
2018-12-09T14:47:15.966Z,2.73
2018-12-09T14:50:19.472Z,3.83
2018-12-09T14:53:22.976Z,4.37
2018-12-09T14:56:26.481Z,4.57
2018-12-09T14:59:30.022Z,5.00
2018-12-09T15:02:33.669Z,3.40
2018-12-09T15:05:37.466Z,5.03
2018-12-09T15:08:40.991Z,5.43
2018-12-09T15:11:44.518Z,3.47
2018-12-09T15:14:48.182Z,4.37
2018-12-09T15:17:51.765Z,7.03
2018-12-09T15:20:55.357Z,4.37
2018-12-09T15:23:58.901Z,3.60
2018-12-09T15:27:02.361Z,3.03
2018-12-09T15:30:08.178Z,4.33
2018-12-09T15:33:12.181Z,3.77
2018-12-09T15:36:15.866Z,6.60
2018-12-09T15:39:20.559Z,12.23
2018-12-09T15:42:24.211Z,28.83
2018-12-09T15:45:27.775Z,9.10
2018-12-09T15:48:32.681Z,5.53
2018-12-09T15:51:36.468Z,3.50
2018-12-09T15:54:40.101Z,3.30
2018-12-09T15:57:43.624Z,3.67
2018-12-09T16:00:53.583Z,3.07
2018-12-09T16:03:57.238Z,4.37
2018-12-09T16:07:00.790Z,4.37
2018-12-09T16:10:05.024Z,3.30
2018-12-09T16:13:08.768Z,2.73
2018-12-09T16:16:12.366Z,2.67
2018-12-09T16:19:15.972Z,2.63
2018-12-09T16:22:19.684Z,3.13
2018-12-09T16:25:23.364Z,2.23
2018-12-09T16:28:28.043Z,1.63
2018-12-09T16:31:31.648Z,2.70
2018-12-09T16:34:35.152Z,2.93
2018-12-09T16:37:39.567Z,2.43
2018-12-09T16:40:43.118Z,1.50
2018-12-09T16:43:46.882Z,2.90
2018-12-09T16:46:50.403Z,2.27
2018-12-09T16:49:53.949Z,3.33
2018-12-09T16:52:57.520Z,1.77
2018-12-09T16:56:01.048Z,1.47
2018-12-09T16:59:04.628Z,2.20
2018-12-09T17:02:08.249Z,2.57
2018-12-09T17:05:11.706Z,3.13
2018-12-09T17:08:15.327Z,1.63
2018-12-09T17:11:18.902Z,1.57
2018-12-09T17:14:22.636Z,2.67
2018-12-09T17:17:26.184Z,3.53
2018-12-09T17:20:30.020Z,2.87
2018-12-09T17:23:33.700Z,1.67
2018-12-09T17:26:37.287Z,9.33
2018-12-09T17:29:40.995Z,5.30
2018-12-09T17:32:45.471Z,4.40
2018-12-09T17:35:49.038Z,2.30
2018-12-09T17:38:52.565Z,1.80
2018-12-09T17:41:56.139Z,2.53
2018-12-09T17:44:59.503Z,3.87
2018-12-09T17:48:02.982Z,2.73
2018-12-09T17:51:06.554Z,1.80
2018-12-09T17:54:10.112Z,2.20
2018-12-09T17:57:13.636Z,1.13
2018-12-09T18:00:17.054Z,1.90
2018-12-09T18:03:20.659Z,2.53
2018-12-09T18:06:24.237Z,2.10
2018-12-09T18:09:28.661Z,1.60
2018-12-09T18:12:32.160Z,4.57
2018-12-09T18:15:35.699Z,2.07
2018-12-09T18:18:39.137Z,1.80
2018-12-09T18:21:42.831Z,2.57
2018-12-09T18:24:46.543Z,1.43
2018-12-09T18:27:51.030Z,4.23
2018-12-09T18:30:54.621Z,1.10
2018-12-09T18:33:58.096Z,2.63
2018-12-09T18:37:01.766Z,1.80
2018-12-09T18:40:06.791Z,4.20
2018-12-09T18:43:10.277Z,2.37
2018-12-09T18:46:13.893Z,1.87
2018-12-09T18:49:17.357Z,2.50
2018-12-09T18:52:21.182Z,3.67
2018-12-09T18:55:24.937Z,3.47
2018-12-09T18:58:28.289Z,3.17
2018-12-09T19:01:31.903Z,3.23
2018-12-09T19:04:35.527Z,4.03
2018-12-09T19:07:39.105Z,5.13
2018-12-09T19:10:42.734Z,4.53
2018-12-09T19:13:46.214Z,1.50
2018-12-09T19:16:49.953Z,2.30
2018-12-09T19:19:53.539Z,2.13
2018-12-09T19:22:57.244Z,1.63
2018-12-09T19:26:00.890Z,6.40
2018-12-09T19:29:04.709Z,3.57
2018-12-09T19:32:08.783Z,2.60
2018-12-09T19:35:13.351Z,2.40
2018-12-09T19:38:16.908Z,2.77
2018-12-09T19:41:20.582Z,1.70
2018-12-09T19:44:24.399Z,1.77
2018-12-09T19:47:28.170Z,1.20
2018-12-09T19:50:31.730Z,1.77
2018-12-09T19:53:35.413Z,2.80
2018-12-09T19:56:39.011Z,2.37
2018-12-09T19:59:42.521Z,3.37
2018-12-09T20:02:46.042Z,1.50
2018-12-09T20:05:49.626Z,1.33
2018-12-09T20:08:53.202Z,2.17
2018-12-09T20:11:57.120Z,2.23
2018-12-09T20:15:00.728Z,5.53
2018-12-09T20:18:04.203Z,2.20
2018-12-09T20:21:07.816Z,1.60
2018-12-09T20:24:11.361Z,2.67
2018-12-09T20:27:14.976Z,3.53
2018-12-09T20:30:18.475Z,2.17
2018-12-09T20:33:21.976Z,3.07
2018-12-09T20:36:25.542Z,2.33
2018-12-09T20:39:29.113Z,2.37
2018-12-09T20:42:32.667Z,2.30
2018-12-09T20:45:36.187Z,2.60
2018-12-09T20:48:39.824Z,2.50
2018-12-09T20:51:43.295Z,1.63
2018-12-09T20:54:46.851Z,2.43
2018-12-09T20:57:50.430Z,3.20
2018-12-09T21:00:54.004Z,1.93
2018-12-09T21:03:57.600Z,3.37
2018-12-09T21:07:01.220Z,2.03
2018-12-09T21:10:05.721Z,1.90
2018-12-09T21:13:11.273Z,2.43
2018-12-09T21:16:14.795Z,2.27
2018-12-09T21:19:18.412Z,3.00
2018-12-09T21:22:22.089Z,2.10
2018-12-09T21:25:25.601Z,3.93
2018-12-09T21:28:29.392Z,2.33
2018-12-09T21:31:33.042Z,3.53
2018-12-09T21:34:36.636Z,1.70
2018-12-09T21:37:42.022Z,3.63
2018-12-09T21:40:44.865Z,1.27
2018-12-09T21:43:48.420Z,1.97
2018-12-09T21:46:51.960Z,4.80
2018-12-09T21:49:55.559Z,2.70
2018-12-09T21:52:59.075Z,4.23
2018-12-09T21:56:02.629Z,3.40
2018-12-09T21:59:06.221Z,5.03
2018-12-09T22:02:09.758Z,2.33
2018-12-09T22:05:13.287Z,3.60
2018-12-09T22:08:16.781Z,4.73
2018-12-09T22:11:20.446Z,3.43
2018-12-09T22:14:24.004Z,4.83
2018-12-09T22:17:27.470Z,3.43
2018-12-09T22:20:30.908Z,3.87
2018-12-09T22:23:34.298Z,4.60
2018-12-09T22:26:37.965Z,3.23
2018-12-09T22:29:41.417Z,2.40
2018-12-09T22:32:46.044Z,1.87
2018-12-09T22:35:50.912Z,2.73
2018-12-09T22:38:54.454Z,2.43
2018-12-09T22:41:57.947Z,2.87
2018-12-09T22:45:01.479Z,2.70
2018-12-09T22:48:05.089Z,2.50
2018-12-09T22:51:08.585Z,4.80
2018-12-09T22:54:12.096Z,4.27
2018-12-09T22:57:15.588Z,2.67
2018-12-09T23:00:24.863Z,3.57
2018-12-09T23:03:28.520Z,4.57
2018-12-09T23:06:32.212Z,6.43
2018-12-09T23:09:35.659Z,3.03
2018-12-09T23:12:40.250Z,2.93
2018-12-09T23:15:43.691Z,2.60
2018-12-09T23:18:47.275Z,5.50
2018-12-09T23:21:50.970Z,3.57
2018-12-09T23:24:54.379Z,6.37
2018-12-09T23:27:58.895Z,8.17
2018-12-09T23:31:02.278Z,2.37
2018-12-09T23:34:05.734Z,4.17
2018-12-09T23:37:09.178Z,5.33
2018-12-09T23:40:12.583Z,5.63
2018-12-09T23:43:17.265Z,5.43
2018-12-09T23:46:20.720Z,3.70
2018-12-09T23:49:24.271Z,7.27
2018-12-09T23:52:27.785Z,2.93
2018-12-09T23:55:31.168Z,4.07
2018-12-09T23:58:34.511Z,3.43
